createdAt,value
2023-02-23T00:02:30.976Z,98910.00
2023-02-23T00:04:58.128Z,98902.00
2023-02-23T00:07:31.870Z,98895.00
2023-02-23T00:10:05.826Z,98907.00
2023-02-23T00:12:38.880Z,98862.00
2023-02-23T00:15:06.548Z,98886.00
2023-02-23T00:17:39.847Z,98902.00
2023-02-23T00:20:09.172Z,98905.00
2023-02-23T00:22:36.170Z,98908.00
2023-02-23T00:25:09.885Z,98907.00
2023-02-23T00:27:37.353Z,98912.00
2023-02-23T00:30:11.922Z,98914.00
2023-02-23T00:32:45.874Z,98919.00
2023-02-23T00:35:13.027Z,98909.00
2023-02-23T00:37:39.966Z,98895.00
2023-02-23T00:40:13.938Z,98909.00
2023-02-23T00:42:47.849Z,98906.00
2023-02-23T00:45:15.037Z,98906.00
2023-02-23T00:47:49.904Z,98885.00
2023-02-23T00:50:17.659Z,98897.00
2023-02-23T00:52:44.777Z,98892.00
2023-02-23T00:55:19.865Z,98911.00
2023-02-23T00:57:52.847Z,98902.00
2023-02-23T01:00:20.251Z,98898.00
2023-02-23T01:02:50.224Z,98891.00
2023-02-23T01:05:23.903Z,98888.00
2023-02-23T01:07:50.832Z,98881.00
2023-02-23T01:10:17.951Z,98904.00
2023-02-23T01:12:55.857Z,98900.00
2023-02-23T01:15:28.976Z,98882.00
2023-02-23T01:17:56.190Z,98884.00
2023-02-23T01:20:29.876Z,98901.00
2023-02-23T01:22:56.933Z,98888.00
2023-02-23T01:25:23.951Z,98897.00
2023-02-23T01:27:57.903Z,98893.00
2023-02-23T01:30:31.877Z,98894.00
2023-02-23T01:33:00.500Z,98891.00
2023-02-23T01:35:33.859Z,98875.00
2023-02-23T01:38:01.010Z,98880.00
2023-02-23T01:40:34.860Z,98877.00
2023-02-23T01:43:22.450Z,98877.00
2023-02-23T01:45:56.078Z,98886.00
2023-02-23T01:48:27.393Z,98851.00
2023-02-23T01:51:04.990Z,98876.00
2023-02-23T01:53:34.852Z,98880.00
2023-02-23T01:56:16.918Z,98872.00
2023-02-23T01:58:46.493Z,98874.00
2023-02-23T02:01:20.175Z,98861.00
2023-02-23T02:03:50.169Z,98856.00
2023-02-23T02:06:24.971Z,98843.00
2023-02-23T02:08:53.161Z,98850.00
2023-02-23T02:11:26.891Z,98863.00
2023-02-23T02:14:02.900Z,98852.00
2023-02-23T02:17:16.993Z,98859.00
2023-02-23T02:20:02.553Z,98862.00
2023-02-23T02:22:54.986Z,98864.00
2023-02-23T02:26:03.017Z,98856.00
2023-02-23T02:28:50.189Z,98849.00
2023-02-23T02:31:51.008Z,98828.00
2023-02-23T02:35:01.219Z,98852.00
2023-02-23T02:37:57.962Z,98858.00
2023-02-23T02:40:38.168Z,98841.00
2023-02-23T02:43:23.897Z,98840.00
2023-02-23T02:45:55.700Z,98823.00
2023-02-23T02:48:43.887Z,98824.00
2023-02-23T02:51:42.039Z,98828.00
2023-02-23T02:54:23.664Z,98830.00
2023-02-23T02:56:57.082Z,98829.00
2023-02-23T02:59:24.496Z,98835.00
2023-02-23T03:01:51.740Z,98823.00
2023-02-23T03:04:31.034Z,98830.00
2023-02-23T03:06:59.938Z,98830.00
2023-02-23T03:10:32.894Z,98821.00
2023-02-23T03:13:09.793Z,98833.00
2023-02-23T03:16:13.005Z,98825.00
2023-02-23T03:19:11.470Z,98839.00
2023-02-23T03:22:12.937Z,98829.00
2023-02-23T03:24:48.108Z,98833.00
2023-02-23T03:27:26.985Z,98834.00
2023-02-23T03:30:00.131Z,98832.00
2023-02-23T03:32:54.005Z,98839.00
2023-02-23T03:35:29.115Z,98834.00
2023-02-23T03:38:28.929Z,98844.00
2023-02-23T03:41:01.955Z,98845.00
2023-02-23T03:43:36.786Z,98841.00
2023-02-23T03:46:11.958Z,98828.00
2023-02-23T03:48:44.924Z,98816.00
2023-02-23T03:51:12.109Z,98837.00
2023-02-23T03:53:59.974Z,98835.00
2023-02-23T03:56:33.999Z,98828.00
2023-02-23T03:59:01.270Z,98827.00
2023-02-23T04:01:35.014Z,98845.00
2023-02-23T04:04:02.008Z,98835.00
2023-02-23T04:06:31.537Z,98840.00
2023-02-23T04:09:07.914Z,98837.00
2023-02-23T04:11:38.559Z,98840.00
2023-02-23T04:14:14.929Z,98826.00
2023-02-23T04:16:42.037Z,98828.00
2023-02-23T04:19:16.041Z,98837.00
2023-02-23T04:21:43.031Z,98849.00
2023-02-23T04:24:17.029Z,98827.00
2023-02-23T04:26:44.143Z,98842.00
2023-02-23T04:29:18.976Z,98828.00
2023-02-23T04:31:45.929Z,98840.00
2023-02-23T04:34:19.062Z,98822.00
2023-02-23T04:36:46.152Z,98844.00
2023-02-23T04:39:19.965Z,98829.00
2023-02-23T04:41:47.020Z,98855.00
2023-02-23T04:44:13.991Z,98843.00
2023-02-23T04:46:47.049Z,98856.00
2023-02-23T04:49:13.998Z,98860.00
2023-02-23T04:51:47.972Z,98832.00
2023-02-23T04:54:15.081Z,98857.00
2023-02-23T04:56:42.163Z,98859.00
2023-02-23T04:59:15.962Z,98858.00
2023-02-23T05:01:49.968Z,98844.00
2023-02-23T05:04:16.953Z,98822.00
2023-02-23T05:06:43.921Z,98831.00
2023-02-23T05:09:17.018Z,98856.00
2023-02-23T05:11:44.036Z,98866.00
2023-02-23T05:14:11.063Z,98840.00
2023-02-23T05:16:45.029Z,98853.00
2023-02-23T05:19:19.001Z,98866.00
2023-02-23T05:21:45.980Z,98856.00
2023-02-23T05:24:13.177Z,98847.00
2023-02-23T05:26:47.041Z,98865.00
2023-02-23T05:29:14.068Z,98848.00
2023-02-23T05:31:41.138Z,98851.00
2023-02-23T05:34:15.001Z,98853.00
2023-02-23T05:36:42.065Z,98861.00
2023-02-23T05:39:15.979Z,98837.00
2023-02-23T05:41:43.006Z,98852.00
2023-02-23T05:44:16.038Z,98846.00
2023-02-23T05:46:48.992Z,98841.00
2023-02-23T05:49:15.964Z,98845.00
2023-02-23T05:51:42.875Z,98854.00
2023-02-23T05:54:15.999Z,98853.00
2023-02-23T05:56:43.134Z,98850.00
2023-02-23T05:59:17.043Z,98865.00
2023-02-23T06:01:51.045Z,98844.00
2023-02-23T06:04:17.919Z,98851.00
2023-02-23T06:06:51.036Z,98864.00
2023-02-23T06:09:17.942Z,98851.00
2023-02-23T06:11:44.878Z,98861.00
2023-02-23T06:14:18.065Z,98854.00
2023-02-23T06:16:45.193Z,98866.00
2023-02-23T06:19:19.078Z,98853.00
2023-02-23T06:21:46.137Z,98869.00
2023-02-23T06:24:13.097Z,98856.00
2023-02-23T06:26:47.062Z,98856.00
2023-02-23T06:29:20.336Z,98858.00
2023-02-23T06:31:47.452Z,98863.00
2023-02-23T06:34:14.509Z,98856.00
2023-02-23T06:36:48.011Z,98847.00
2023-02-23T06:39:14.892Z,98869.00
2023-02-23T06:41:48.058Z,98865.00
2023-02-23T06:44:21.091Z,98870.00
2023-02-23T06:46:48.026Z,98881.00
2023-02-23T06:49:21.101Z,98870.00
2023-02-23T06:51:48.021Z,98875.00
2023-02-23T06:54:21.012Z,98883.00
2023-02-23T06:56:47.978Z,98862.00
2023-02-23T06:59:14.936Z,98884.00
2023-02-23T07:01:48.071Z,98888.00
2023-02-23T07:04:16.841Z,98884.00
2023-02-23T07:06:44.097Z,98878.00
2023-02-23T07:09:18.100Z,98882.00
2023-02-23T07:11:45.058Z,98865.00
2023-02-23T07:14:26.492Z,98877.00
2023-02-23T07:16:54.402Z,98886.00
2023-02-23T07:19:28.062Z,98900.00
2023-02-23T07:21:55.039Z,98896.00
2023-02-23T07:24:29.039Z,98904.00
2023-02-23T07:26:55.955Z,98902.00
2023-02-23T07:29:30.036Z,98899.00
2023-02-23T07:31:57.109Z,98884.00
2023-02-23T07:34:24.188Z,98905.00
2023-02-23T07:36:58.107Z,98905.00
2023-02-23T07:39:25.141Z,98905.00
2023-02-23T07:41:52.136Z,98892.00
2023-02-23T07:44:26.103Z,98901.00
2023-02-23T07:46:59.100Z,98910.00
2023-02-23T07:49:26.173Z,98882.00
2023-02-23T07:51:53.299Z,98875.00
2023-02-23T07:54:27.141Z,98893.00
2023-02-23T07:56:54.134Z,98911.00
2023-02-23T07:59:28.147Z,98905.00
2023-02-23T08:02:02.109Z,98915.00
2023-02-23T08:04:29.206Z,98888.00
2023-02-23T08:07:03.159Z,98892.00
2023-02-23T08:09:30.200Z,98903.00
2023-02-23T08:11:58.165Z,98914.00
2023-02-23T08:14:32.179Z,98904.00
2023-02-23T08:17:06.180Z,98882.00
2023-02-23T08:19:33.280Z,98890.00
2023-02-23T08:22:09.820Z,98906.00
2023-02-23T08:24:37.700Z,98910.00
2023-02-23T08:27:04.874Z,98900.00
2023-02-23T08:29:38.133Z,98915.00
2023-02-23T08:32:05.891Z,98912.00
2023-02-23T08:34:47.181Z,98918.00
2023-02-23T08:37:14.331Z,98899.00
2023-02-23T08:39:43.396Z,98914.00
2023-02-23T08:42:17.071Z,98935.00
2023-02-23T08:44:43.948Z,98932.00
2023-02-23T08:47:17.105Z,98921.00
2023-02-23T08:49:44.115Z,98923.00
2023-02-23T08:52:24.156Z,98917.00
2023-02-23T08:54:51.249Z,98926.00
2023-02-23T08:57:25.168Z,98923.00
2023-02-23T08:59:52.247Z,98938.00
2023-02-23T09:02:19.366Z,98937.00
2023-02-23T09:04:53.285Z,98944.00
2023-02-23T09:07:28.244Z,98936.00
2023-02-23T09:09:58.762Z,98931.00
2023-02-23T09:12:32.214Z,98910.00
2023-02-23T09:15:15.087Z,98934.00
2023-02-23T09:17:42.114Z,98926.00
2023-02-23T09:20:17.156Z,98941.00
2023-02-23T09:22:50.876Z,98934.00
2023-02-23T09:25:27.226Z,98935.00
2023-02-23T09:28:01.124Z,98936.00
2023-02-23T09:30:28.314Z,98943.00
2023-02-23T09:33:02.215Z,98936.00
2023-02-23T09:35:29.153Z,98944.00
2023-02-23T09:37:56.319Z,98929.00
2023-02-23T09:40:36.216Z,98919.00
2023-02-23T09:43:17.208Z,98945.00
2023-02-23T09:45:53.515Z,98954.00
2023-02-23T09:48:35.216Z,98937.00
2023-02-23T09:51:02.319Z,98948.00
2023-02-23T09:53:57.195Z,98936.00
2023-02-23T09:56:43.188Z,98946.00
2023-02-23T09:59:18.582Z,98921.00
2023-02-23T10:01:55.198Z,98948.00
2023-02-23T10:04:38.596Z,98952.00
2023-02-23T10:07:21.141Z,98951.00
2023-02-23T10:10:28.299Z,98956.00
2023-02-23T10:13:45.489Z,98950.00
2023-02-23T10:16:43.266Z,98949.00
2023-02-23T10:19:52.413Z,98959.00
2023-02-23T10:22:26.225Z,98960.00
2023-02-23T10:25:07.225Z,98960.00
2023-02-23T10:27:41.573Z,98957.00
2023-02-23T10:30:33.223Z,98932.00
2023-02-23T10:33:16.660Z,98958.00
2023-02-23T10:35:51.202Z,98954.00
2023-02-23T10:38:19.411Z,98956.00
2023-02-23T10:40:57.204Z,98952.00
2023-02-23T10:43:31.225Z,98948.00
2023-02-23T10:45:58.191Z,98944.00
2023-02-23T10:48:50.296Z,98927.00
2023-02-23T10:51:25.369Z,98957.00
2023-02-23T10:54:07.501Z,98907.00
2023-02-23T10:56:34.866Z,98947.00
2023-02-23T10:59:08.228Z,98939.00
2023-02-23T11:01:52.186Z,98933.00
2023-02-23T11:04:39.331Z,98927.00
2023-02-23T11:07:27.987Z,98923.00
2023-02-23T11:10:03.192Z,98918.00
2023-02-23T11:12:39.842Z,98941.00
2023-02-23T11:15:48.097Z,98932.00
2023-02-23T11:18:22.848Z,98931.00
2023-02-23T11:20:56.186Z,98918.00
2023-02-23T11:23:28.906Z,98929.00
2023-02-23T11:26:06.238Z,98936.00
2023-02-23T11:28:36.341Z,98937.00
2023-02-23T11:31:21.848Z,98915.00
2023-02-23T11:33:49.227Z,98921.00
2023-02-23T11:36:42.164Z,98927.00
2023-02-23T11:39:17.763Z,98927.00
2023-02-23T11:41:51.293Z,98905.00
2023-02-23T11:44:23.443Z,98910.00
2023-02-23T11:46:57.304Z,98920.00
2023-02-23T11:49:31.789Z,98917.00
2023-02-23T11:52:05.203Z,98911.00
2023-02-23T11:54:40.243Z,98904.00
2023-02-23T11:57:09.697Z,98909.00
2023-02-23T11:59:39.555Z,98908.00
2023-02-23T12:02:32.263Z,98907.00
2023-02-23T12:05:22.262Z,98911.00
2023-02-23T12:08:48.244Z,98902.00
2023-02-23T12:11:19.366Z,98891.00
2023-02-23T12:14:27.476Z,98897.00
2023-02-23T12:17:06.178Z,98883.00
2023-02-23T12:19:55.484Z,98890.00
2023-02-23T12:22:39.195Z,98879.00
2023-02-23T12:25:29.576Z,98871.00
2023-02-23T12:28:18.505Z,98877.00
2023-02-23T12:30:52.278Z,98868.00
2023-02-23T12:33:30.343Z,98842.00
2023-02-23T12:36:02.712Z,98857.00
2023-02-23T12:39:05.374Z,98855.00
2023-02-23T12:41:57.010Z,98849.00
2023-02-23T12:44:41.352Z,98853.00
2023-02-23T12:47:31.950Z,98851.00
2023-02-23T12:50:10.247Z,98843.00
2023-02-23T12:53:07.920Z,98844.00
2023-02-23T12:56:01.264Z,98822.00
2023-02-23T12:58:48.863Z,98838.00
2023-02-23T13:01:41.354Z,98835.00
2023-02-23T13:04:43.881Z,98832.00
2023-02-23T13:07:31.268Z,98834.00
2023-02-23T13:10:15.323Z,98827.00
2023-02-23T13:13:19.096Z,98833.00
2023-02-23T13:16:26.392Z,98831.00
2023-02-23T13:19:25.339Z,98833.00
2023-02-23T13:22:21.236Z,98829.00
2023-02-23T13:24:48.535Z,98832.00
2023-02-23T13:27:31.316Z,98833.00
2023-02-23T13:29:58.255Z,98825.00
2023-02-23T13:32:40.354Z,98829.00
2023-02-23T13:35:17.752Z,98823.00
2023-02-23T13:38:22.287Z,98831.00
2023-02-23T13:41:11.848Z,98827.00
2023-02-23T13:44:14.318Z,98833.00
2023-02-23T13:47:14.527Z,98826.00
2023-02-23T13:49:56.298Z,98824.00
2023-02-23T13:52:43.699Z,98842.00
2023-02-23T13:55:46.936Z,98832.00
2023-02-23T13:58:25.978Z,98826.00
2023-02-23T14:01:18.723Z,98827.00
2023-02-23T14:04:04.312Z,98818.00
2023-02-23T14:06:33.411Z,98816.00
2023-02-23T14:09:41.436Z,98818.00
2023-02-23T14:12:11.048Z,98815.00
2023-02-23T14:14:46.249Z,98799.00
2023-02-23T14:17:22.320Z,98818.00
2023-02-23T14:20:13.363Z,98826.00
2023-02-23T14:23:27.385Z,98822.00
2023-02-23T14:26:18.320Z,98818.00
2023-02-23T14:29:24.346Z,98815.00
2023-02-23T14:32:15.139Z,98812.00
2023-02-23T14:34:57.370Z,98817.00
2023-02-23T14:37:41.672Z,98808.00
2023-02-23T14:40:24.293Z,98805.00
2023-02-23T14:42:52.933Z,98819.00
2023-02-23T14:45:22.824Z,98806.00
2023-02-23T14:47:57.415Z,98812.00
2023-02-23T14:50:30.530Z,98832.00
2023-02-23T14:53:04.392Z,98822.00
2023-02-23T14:55:33.332Z,98829.00
2023-02-23T14:58:00.303Z,98828.00
2023-02-23T15:00:39.350Z,98817.00
2023-02-23T15:06:06.306Z,98817.00
2023-02-23T15:08:33.523Z,98827.00
2023-02-23T15:11:20.693Z,98812.00
2023-02-23T15:13:51.936Z,98839.00
2023-02-23T15:16:37.339Z,98823.00
2023-02-23T15:19:04.421Z,98829.00
2023-02-23T15:21:31.377Z,98808.00
2023-02-23T15:24:19.328Z,98829.00
2023-02-23T15:26:46.744Z,98826.00
2023-02-23T15:29:22.349Z,98822.00
2023-02-23T15:31:59.482Z,98819.00
2023-02-23T15:34:34.392Z,98829.00
2023-02-23T15:37:03.832Z,98814.00
2023-02-23T15:39:56.362Z,98814.00
2023-02-23T15:42:48.369Z,98819.00
2023-02-23T15:45:23.614Z,98821.00
2023-02-23T15:48:04.576Z,98819.00
2023-02-23T15:50:41.717Z,98807.00
2023-02-23T15:53:18.577Z,98798.00
2023-02-23T15:55:52.341Z,98810.00
2023-02-23T15:58:32.294Z,98806.00
2023-02-23T16:01:15.419Z,98807.00
2023-02-23T16:04:05.433Z,98808.00
2023-02-23T16:06:38.149Z,98805.00
2023-02-23T16:09:24.482Z,98798.00
2023-02-23T16:12:01.948Z,98804.00
2023-02-23T16:14:58.378Z,98805.00
2023-02-23T16:17:43.883Z,98813.00
2023-02-23T16:20:35.506Z,98804.00
2023-02-23T16:23:02.965Z,98808.00
2023-02-23T16:25:39.561Z,98798.00
2023-02-23T16:28:10.192Z,98815.00
2023-02-23T16:30:57.428Z,98828.00
2023-02-23T16:33:25.993Z,98818.00
2023-02-23T16:36:11.428Z,98816.00
2023-02-23T16:38:46.222Z,98825.00
2023-02-23T16:41:27.395Z,98823.00
2023-02-23T16:43:55.715Z,98819.00
2023-02-23T16:46:24.774Z,98819.00
2023-02-23T16:48:58.598Z,98821.00
2023-02-23T16:51:26.831Z,98817.00
2023-02-23T16:53:53.731Z,98803.00
2023-02-23T16:56:28.436Z,98807.00
2023-02-23T16:58:58.608Z,98821.00
2023-02-23T17:01:32.391Z,98809.00
2023-02-23T17:03:59.354Z,98814.00
2023-02-23T17:06:35.519Z,98821.00
2023-02-23T17:09:02.659Z,98812.00
2023-02-23T17:11:36.541Z,98805.00
2023-02-23T17:14:03.469Z,98820.00
2023-02-23T17:16:36.443Z,98822.00
2023-02-23T17:19:03.404Z,98824.00
2023-02-23T17:21:36.577Z,98818.00
2023-02-23T17:24:10.455Z,98829.00
2023-02-23T17:26:37.360Z,98830.00
2023-02-23T17:29:10.432Z,98831.00
2023-02-23T17:31:37.536Z,98837.00
2023-02-23T17:34:04.530Z,98835.00
2023-02-23T17:36:38.444Z,98826.00
2023-02-23T17:39:05.405Z,98842.00
2023-02-23T17:41:32.334Z,98827.00
2023-02-23T17:44:05.462Z,98838.00
2023-02-23T17:46:38.549Z,98849.00
2023-02-23T17:49:05.604Z,98840.00
2023-02-23T17:51:32.498Z,98855.00
2023-02-23T17:54:05.404Z,98848.00
2023-02-23T17:56:38.473Z,98829.00
2023-02-23T17:59:54.147Z,98870.00
2023-02-23T18:02:28.467Z,98863.00
2023-02-23T18:05:02.484Z,98855.00
2023-02-23T18:07:29.449Z,98872.00
2023-02-23T18:09:56.409Z,98862.00
2023-02-23T18:12:29.491Z,98873.00
2023-02-23T18:15:03.455Z,98875.00
2023-02-23T18:17:30.431Z,98881.00
2023-02-23T18:19:57.367Z,98887.00
2023-02-23T18:22:30.465Z,98867.00
2023-02-23T18:25:11.530Z,98888.00
2023-02-23T18:27:44.549Z,98865.00
2023-02-23T18:30:12.461Z,98875.00
2023-02-23T18:32:39.396Z,98878.00
2023-02-23T18:35:13.466Z,98873.00
2023-02-23T18:37:40.414Z,98882.00
2023-02-23T18:40:14.488Z,98874.00
2023-02-23T18:42:41.484Z,98878.00
2023-02-23T18:45:09.013Z,98870.00
2023-02-23T18:47:42.486Z,98864.00
2023-02-23T18:50:11.181Z,98895.00
2023-02-23T18:52:45.536Z,98870.00
2023-02-23T18:55:13.622Z,98891.00
2023-02-23T18:57:40.559Z,98882.00
2023-02-23T19:00:14.474Z,98871.00
2023-02-23T19:02:48.482Z,98877.00
2023-02-23T19:05:17.529Z,98884.00
2023-02-23T19:07:51.547Z,98863.00
2023-02-23T19:10:18.618Z,98873.00
2023-02-23T19:12:45.534Z,98870.00
2023-02-23T19:15:18.498Z,98901.00
2023-02-23T19:17:47.190Z,98891.00
2023-02-23T19:20:21.492Z,98898.00
2023-02-23T19:22:48.432Z,98889.00
2023-02-23T19:25:15.424Z,98902.00
2023-02-23T19:27:49.525Z,98897.00
2023-02-23T19:30:16.500Z,98908.00
2023-02-23T19:32:49.790Z,98902.00
2023-02-23T19:35:17.015Z,98899.00
2023-02-23T19:37:58.498Z,98887.00
2023-02-23T19:40:25.460Z,98907.00
2023-02-23T19:42:52.393Z,98896.00
2023-02-23T19:45:25.532Z,98895.00
2023-02-23T19:47:53.144Z,98908.00
2023-02-23T19:50:20.406Z,98901.00
2023-02-23T19:52:54.522Z,98922.00
2023-02-23T19:55:21.454Z,98909.00
2023-02-23T19:57:48.368Z,98925.00
2023-02-23T20:00:22.528Z,98923.00
2023-02-23T20:02:51.965Z,98923.00
2023-02-23T20:05:25.592Z,98908.00
2023-02-23T20:07:52.637Z,98911.00
2023-02-23T20:10:26.563Z,98917.00
2023-02-23T20:13:02.438Z,98886.00
2023-02-23T20:15:35.519Z,98912.00
2023-02-23T20:18:02.390Z,98903.00
2023-02-23T20:20:37.601Z,98905.00
2023-02-23T20:23:04.466Z,98897.00
2023-02-23T20:25:37.539Z,98904.00
2023-02-23T20:28:04.703Z,98903.00
2023-02-23T20:30:31.649Z,98918.00
2023-02-23T20:33:05.535Z,98915.00
2023-02-23T20:35:32.663Z,98920.00
2023-02-23T20:38:06.554Z,98906.00
2023-02-23T20:40:33.637Z,98927.00
2023-02-23T20:43:07.542Z,98930.00
2023-02-23T20:45:34.576Z,98931.00
2023-02-23T20:48:07.581Z,98932.00
2023-02-23T20:50:34.449Z,98933.00
2023-02-23T20:53:07.558Z,98934.00
2023-02-23T20:55:41.510Z,98935.00
2023-02-23T20:58:08.462Z,98941.00
2023-02-23T21:00:41.558Z,98932.00
2023-02-23T21:03:08.514Z,98953.00
2023-02-23T21:05:39.283Z,98932.00
2023-02-23T21:08:13.617Z,98947.00
2023-02-23T21:10:40.538Z,98929.00
2023-02-23T21:13:07.559Z,98937.00
2023-02-23T21:15:40.576Z,98932.00
2023-02-23T21:18:07.801Z,98937.00
2023-02-23T21:20:41.591Z,98930.00
2023-02-23T21:23:08.529Z,98937.00
2023-02-23T21:25:35.456Z,98925.00
2023-02-23T21:28:08.571Z,98945.00
2023-02-23T21:30:41.635Z,98941.00
2023-02-23T21:33:08.681Z,98955.00
2023-02-23T21:35:42.579Z,98947.00
2023-02-23T21:38:09.508Z,98955.00
2023-02-23T21:40:43.572Z,98947.00
2023-02-23T21:43:10.472Z,98950.00
2023-02-23T21:45:39.431Z,98948.00
2023-02-23T21:48:12.592Z,98944.00
2023-02-23T21:50:39.646Z,98943.00
2023-02-23T21:53:13.574Z,98936.00
2023-02-23T21:55:40.513Z,98946.00
2023-02-23T21:58:07.712Z,98951.00
2023-02-23T22:00:41.566Z,98946.00
2023-02-23T22:03:08.614Z,98954.00
2023-02-23T22:05:41.597Z,98943.00
2023-02-23T22:08:08.599Z,98951.00
2023-02-23T22:10:41.648Z,98943.00
2023-02-23T22:13:14.606Z,98945.00
2023-02-23T22:15:48.644Z,98926.00
2023-02-23T22:18:15.667Z,98939.00
2023-02-23T22:20:42.572Z,98933.00
2023-02-23T22:23:15.593Z,98942.00
2023-02-23T22:25:42.509Z,98939.00
2023-02-23T22:28:09.429Z,98914.00
2023-02-23T22:30:42.568Z,98921.00
2023-02-23T22:33:09.551Z,98927.00
2023-02-23T22:35:46.554Z,98927.00
2023-02-23T22:38:13.694Z,98927.00
2023-02-23T22:40:47.582Z,98930.00
2023-02-23T22:43:14.556Z,98922.00
2023-02-23T22:45:41.588Z,98913.00
2023-02-23T22:48:15.600Z,98909.00
2023-02-23T22:50:42.713Z,98906.00
2023-02-23T22:53:09.965Z,98913.00
2023-02-23T22:55:43.828Z,98916.00
2023-02-23T22:58:10.920Z,98897.00
2023-02-23T23:00:44.588Z,98913.00
2023-02-23T23:03:11.683Z,98900.00
2023-02-23T23:05:38.881Z,98899.00
2023-02-23T23:08:12.616Z,98906.00
2023-02-23T23:10:39.602Z,98895.00
2023-02-23T23:13:12.668Z,98904.00
2023-02-23T23:15:39.861Z,98913.00
2023-02-23T23:18:13.659Z,98916.00
2023-02-23T23:20:40.841Z,98917.00
2023-02-23T23:23:07.820Z,98918.00
2023-02-23T23:25:41.604Z,98913.00
2023-02-23T23:28:08.591Z,98912.00
2023-02-23T23:30:42.683Z,98909.00
2023-02-23T23:33:09.842Z,98903.00
2023-02-23T23:35:43.609Z,98889.00
2023-02-23T23:38:10.538Z,98898.00
2023-02-23T23:40:37.457Z,98892.00
2023-02-23T23:43:10.675Z,98904.00
2023-02-23T23:45:39.638Z,98899.00
2023-02-23T23:48:12.655Z,98888.00
2023-02-23T23:50:39.683Z,98881.00
2023-02-23T23:53:06.696Z,98885.00
2023-02-23T23:55:40.761Z,98892.00
2023-02-23T23:58:14.630Z,98896.00
